createdAt,value
2019-02-16T00:01:09.085Z,41.85
2019-02-16T00:03:36.246Z,40.72
2019-02-16T00:06:03.136Z,40.60
2019-02-16T00:08:30.789Z,40.86
2019-02-16T00:10:58.830Z,41.65
2019-02-16T00:13:25.853Z,42.94
2019-02-16T00:15:52.810Z,43.85
2019-02-16T00:18:19.696Z,44.18
2019-02-16T00:20:46.600Z,44.80
2019-02-16T00:23:13.866Z,44.99
2019-02-16T00:25:41.141Z,45.64
2019-02-16T00:28:08.078Z,45.02
2019-02-16T00:30:34.996Z,45.98
2019-02-16T00:33:02.255Z,45.53
2019-02-16T00:35:29.250Z,45.23
2019-02-16T00:37:56.555Z,45.36
2019-02-16T00:40:23.802Z,45.31
2019-02-16T00:42:50.714Z,46.25
2019-02-16T00:45:17.658Z,46.88
2019-02-16T00:47:44.624Z,47.78
2019-02-16T00:50:11.598Z,47.30
2019-02-16T00:52:38.573Z,47.01
2019-02-16T00:55:05.611Z,47.58
2019-02-16T00:57:32.941Z,47.31
2019-02-16T00:59:59.824Z,47.10
2019-02-16T01:02:26.776Z,48.03
2019-02-16T01:04:54.990Z,47.75
2019-02-16T01:07:21.877Z,47.05
2019-02-16T01:09:49.106Z,47.72
2019-02-16T01:12:16.407Z,47.57
2019-02-16T01:14:43.333Z,47.49
2019-02-16T01:17:10.665Z,47.65
2019-02-16T01:19:37.614Z,48.25
2019-02-16T01:22:04.846Z,48.14
2019-02-16T01:24:31.752Z,47.26
2019-02-16T01:26:58.703Z,47.71
2019-02-16T01:29:25.620Z,48.69
2019-02-16T01:31:52.950Z,49.00
2019-02-16T01:34:19.918Z,48.83
2019-02-16T01:36:47.134Z,48.26
2019-02-16T01:39:14.706Z,48.49
2019-02-16T01:41:41.668Z,48.50
2019-02-16T01:44:08.627Z,48.36
2019-02-16T01:46:35.558Z,48.13
2019-02-16T01:49:02.445Z,46.99
2019-02-16T01:51:31.826Z,47.32
2019-02-16T01:53:57.932Z,48.80
2019-02-16T01:56:25.168Z,47.43
2019-02-16T01:58:52.060Z,48.01
2019-02-16T02:01:19.376Z,48.64
2019-02-16T02:03:47.253Z,48.53
2019-02-16T02:06:14.132Z,47.47
2019-02-16T02:08:41.343Z,48.62
2019-02-16T02:11:08.313Z,47.68
2019-02-16T02:13:35.273Z,48.67
2019-02-16T02:16:02.498Z,50.12
2019-02-16T02:18:29.404Z,50.15
2019-02-16T02:20:56.269Z,48.77
2019-02-16T02:23:23.160Z,50.12
2019-02-16T02:25:50.117Z,48.98
2019-02-16T02:28:17.026Z,48.88
2019-02-16T02:30:44.368Z,49.13
2019-02-16T02:33:11.303Z,48.58
2019-02-16T02:35:38.544Z,47.36
2019-02-16T02:38:05.705Z,46.65
2019-02-16T02:40:32.589Z,46.49
2019-02-16T02:42:59.534Z,48.29
2019-02-16T02:45:26.504Z,49.40
2019-02-16T02:47:53.371Z,48.61
2019-02-16T02:50:20.321Z,48.01
2019-02-16T02:52:47.198Z,48.11
2019-02-16T02:55:14.172Z,47.54
2019-02-16T02:57:41.116Z,47.45
2019-02-16T03:00:08.061Z,48.65
2019-02-16T03:02:35.029Z,47.45
2019-02-16T03:05:01.994Z,46.75
2019-02-16T03:07:29.066Z,46.14
2019-02-16T03:09:56.400Z,45.53
2019-02-16T03:12:23.265Z,45.09
2019-02-16T03:14:50.149Z,45.43
2019-02-16T03:17:17.108Z,46.91
2019-02-16T03:19:44.288Z,47.55
2019-02-16T03:22:11.440Z,48.34
2019-02-16T03:24:38.386Z,47.73
2019-02-16T03:27:05.245Z,48.04
2019-02-16T03:29:32.170Z,48.11
2019-02-16T03:31:59.122Z,46.56
2019-02-16T03:34:26.470Z,47.11
2019-02-16T03:36:53.415Z,47.79
2019-02-16T03:39:20.562Z,47.75
2019-02-16T03:41:48.059Z,47.26
2019-02-16T03:44:15.085Z,47.18
2019-02-16T03:46:42.349Z,47.71
2019-02-16T03:49:09.288Z,48.65
2019-02-16T03:51:36.274Z,48.72
2019-02-16T03:54:03.194Z,49.14
2019-02-16T03:56:30.417Z,48.58
2019-02-16T03:58:57.301Z,48.15
2019-02-16T04:01:24.238Z,48.26
2019-02-16T04:03:51.178Z,48.37
2019-02-16T04:06:18.394Z,48.81
2019-02-16T04:08:45.555Z,48.58
2019-02-16T04:11:12.459Z,49.07
2019-02-16T04:13:39.408Z,50.05
2019-02-16T04:16:06.289Z,49.58
2019-02-16T04:18:34.562Z,48.86
2019-02-16T04:21:01.481Z,48.96
2019-02-16T04:23:28.444Z,49.70
2019-02-16T04:25:55.829Z,49.15
2019-02-16T04:28:22.780Z,48.77
2019-02-16T04:30:49.722Z,48.25
2019-02-16T04:33:16.613Z,48.35
2019-02-16T04:35:43.559Z,48.17
2019-02-16T04:38:10.521Z,47.09
2019-02-16T04:40:37.790Z,45.34
2019-02-16T04:43:04.674Z,43.40
2019-02-16T04:45:31.546Z,42.87
2019-02-16T04:47:58.722Z,43.69
2019-02-16T04:50:25.620Z,42.44
2019-02-16T04:52:52.576Z,42.26
2019-02-16T04:55:22.444Z,42.41
2019-02-16T04:57:49.398Z,41.52
2019-02-16T05:00:16.320Z,42.54
2019-02-16T05:02:43.297Z,42.26
2019-02-16T05:05:10.262Z,41.23
2019-02-16T05:07:37.217Z,41.26
2019-02-16T05:10:04.084Z,42.85
2019-02-16T05:12:30.966Z,43.15
2019-02-16T05:14:57.828Z,42.00
2019-02-16T05:17:24.732Z,41.06
2019-02-16T05:19:52.013Z,40.66
2019-02-16T05:22:19.241Z,42.01
2019-02-16T05:24:46.401Z,42.54
2019-02-16T05:27:13.659Z,43.29
2019-02-16T05:29:40.549Z,43.92
2019-02-16T05:32:07.521Z,44.25
2019-02-16T05:34:34.467Z,44.68
2019-02-16T05:37:01.337Z,45.00
2019-02-16T05:39:28.224Z,44.50
2019-02-16T05:41:55.184Z,44.83
2019-02-16T05:44:22.240Z,45.23
2019-02-16T05:46:49.428Z,46.44
2019-02-16T05:49:16.314Z,46.31
2019-02-16T05:51:43.189Z,45.97
2019-02-16T05:54:10.084Z,46.65
2019-02-16T05:56:37.119Z,46.64
2019-02-16T05:59:04.353Z,46.40
2019-02-16T06:01:31.573Z,46.25
2019-02-16T06:03:58.599Z,45.36
2019-02-16T06:06:25.471Z,45.61
2019-02-16T06:08:52.372Z,45.88
2019-02-16T06:11:19.304Z,45.97
2019-02-16T06:13:46.221Z,45.96
2019-02-16T06:16:13.078Z,45.67
2019-02-16T06:18:40.347Z,45.95
2019-02-16T06:21:07.318Z,46.22
2019-02-16T06:23:34.290Z,46.40
2019-02-16T06:26:01.277Z,46.65
2019-02-16T06:28:28.230Z,46.73
2019-02-16T06:30:55.195Z,46.03
2019-02-16T06:33:22.156Z,45.84
2019-02-16T06:35:49.129Z,46.32
2019-02-16T06:38:16.507Z,46.18
2019-02-16T06:40:43.444Z,46.30
2019-02-16T06:43:10.425Z,46.20
2019-02-16T06:45:37.370Z,45.74
2019-02-16T06:48:04.355Z,44.42
2019-02-16T06:50:36.902Z,44.90
2019-02-16T06:53:00.250Z,45.44
2019-02-16T06:55:27.197Z,45.10
2019-02-16T06:57:54.096Z,45.29
2019-02-16T07:00:21.380Z,44.75
2019-02-16T07:02:48.362Z,43.71
2019-02-16T07:05:15.713Z,43.62
2019-02-16T07:07:42.922Z,43.41
2019-02-16T07:10:09.818Z,42.48
2019-02-16T07:12:37.133Z,42.83
2019-02-16T07:15:04.409Z,43.31
2019-02-16T07:17:31.350Z,43.54
2019-02-16T07:19:58.575Z,44.58
2019-02-16T07:22:25.555Z,44.38
2019-02-16T07:24:52.433Z,44.47
2019-02-16T07:27:19.377Z,43.32
2019-02-16T07:29:46.709Z,42.01
2019-02-16T07:32:13.975Z,41.27
2019-02-16T07:34:41.077Z,41.82
2019-02-16T07:37:08.292Z,42.39
2019-02-16T07:39:35.492Z,42.77
2019-02-16T07:42:02.380Z,42.88
2019-02-16T07:44:29.317Z,42.59
2019-02-16T07:46:56.199Z,42.83
2019-02-16T07:49:23.472Z,42.42
2019-02-16T07:51:50.734Z,42.29
2019-02-16T07:54:17.966Z,42.17
2019-02-16T07:56:45.235Z,41.04
2019-02-16T07:59:12.602Z,39.83
2019-02-16T08:01:39.580Z,39.61
2019-02-16T08:04:06.905Z,39.90
2019-02-16T08:06:33.874Z,40.83
2019-02-16T08:09:01.083Z,40.67
2019-02-16T08:11:29.978Z,39.74
2019-02-16T08:13:58.164Z,42.09
2019-02-16T08:16:25.510Z,43.04
2019-02-16T08:18:52.454Z,42.34
2019-02-16T08:21:19.806Z,41.98
2019-02-16T08:23:46.725Z,43.46
2019-02-16T08:26:14.005Z,43.13
2019-02-16T08:28:41.477Z,42.53
2019-02-16T08:31:08.701Z,42.27
2019-02-16T08:33:35.837Z,42.69
2019-02-16T08:36:03.009Z,42.85
2019-02-16T08:38:30.268Z,42.84
2019-02-16T08:40:57.536Z,42.21
2019-02-16T08:43:24.805Z,42.67
2019-02-16T08:45:52.024Z,40.72
2019-02-16T08:48:20.105Z,40.21
2019-02-16T08:50:47.047Z,40.14
2019-02-16T08:53:14.315Z,41.30
2019-02-16T08:55:42.146Z,39.50
2019-02-16T08:58:09.095Z,40.31
2019-02-16T09:00:36.246Z,40.83
2019-02-16T09:03:03.410Z,41.15
2019-02-16T09:05:40.321Z,41.34
2019-02-16T09:08:07.278Z,41.70
2019-02-16T09:10:34.161Z,42.16
2019-02-16T09:13:03.118Z,40.48
2019-02-16T09:15:30.064Z,40.53
2019-02-16T09:17:57.015Z,39.21
2019-02-16T09:20:24.000Z,38.82
2019-02-16T09:22:51.264Z,39.52
2019-02-16T09:25:18.146Z,39.00
2019-02-16T09:27:45.360Z,39.17
2019-02-16T09:30:12.273Z,38.79
2019-02-16T09:32:39.226Z,40.02
2019-02-16T09:35:06.195Z,39.21
2019-02-16T09:37:33.349Z,40.38
2019-02-16T09:40:00.611Z,40.17
2019-02-16T09:42:27.627Z,39.57
2019-02-16T09:44:55.277Z,40.61
2019-02-16T09:47:22.765Z,40.74
2019-02-16T09:49:50.019Z,41.70
2019-02-16T09:52:16.977Z,41.60
2019-02-16T09:54:43.869Z,42.53
2019-02-16T09:57:10.831Z,40.36
2019-02-16T09:59:37.786Z,39.66
2019-02-16T10:02:04.677Z,40.95
2019-02-16T10:04:31.643Z,39.77
2019-02-16T10:06:58.497Z,40.04
2019-02-16T10:09:25.399Z,41.74
2019-02-16T10:11:52.735Z,40.13
2019-02-16T10:14:19.631Z,39.47
2019-02-16T10:16:46.557Z,39.48
2019-02-16T10:19:13.766Z,39.95
2019-02-16T10:21:41.023Z,38.35
2019-02-16T10:24:07.918Z,38.72
2019-02-16T10:26:35.230Z,38.73
2019-02-16T10:29:02.597Z,38.75
2019-02-16T10:31:29.830Z,40.16
2019-02-16T10:33:56.716Z,39.57
2019-02-16T10:36:23.932Z,39.04
2019-02-16T10:38:50.893Z,39.51
2019-02-16T10:41:18.258Z,40.14
2019-02-16T10:43:45.180Z,40.03
2019-02-16T10:46:12.397Z,40.24
2019-02-16T10:48:39.348Z,39.44
2019-02-16T10:51:06.744Z,39.57
2019-02-16T10:53:33.618Z,38.82
2019-02-16T10:56:00.821Z,39.12
2019-02-16T10:58:28.089Z,39.94
2019-02-16T11:00:55.334Z,40.11
2019-02-16T11:03:22.597Z,38.91
2019-02-16T11:05:49.863Z,38.09
2019-02-16T11:08:16.823Z,36.51
2019-02-16T11:10:44.150Z,36.04
2019-02-16T11:13:11.155Z,36.73
2019-02-16T11:15:38.173Z,36.28
2019-02-16T11:18:05.205Z,36.19
2019-02-16T11:20:32.325Z,36.04
2019-02-16T11:22:59.281Z,35.40
2019-02-16T11:25:26.285Z,37.28
2019-02-16T11:27:53.698Z,35.90
2019-02-16T11:30:21.082Z,35.96
2019-02-16T11:32:48.092Z,35.54
2019-02-16T11:35:16.174Z,36.04
2019-02-16T11:37:43.137Z,36.30
2019-02-16T11:40:11.479Z,36.13
2019-02-16T11:42:38.740Z,35.58
2019-02-16T11:45:06.784Z,35.89
2019-02-16T11:47:34.065Z,35.90
2019-02-16T11:50:01.305Z,36.02
2019-02-16T11:52:28.289Z,36.47
2019-02-16T11:54:55.211Z,36.37
2019-02-16T11:57:22.387Z,36.82
2019-02-16T11:59:49.770Z,35.67
2019-02-16T12:02:17.063Z,36.42
2019-02-16T12:04:43.966Z,36.12
2019-02-16T12:07:10.860Z,36.46
2019-02-16T12:09:37.911Z,36.52
2019-02-16T12:12:05.028Z,35.99
2019-02-16T12:14:32.322Z,35.46
2019-02-16T12:16:59.569Z,35.61
2019-02-16T12:19:26.459Z,36.66
2019-02-16T12:21:53.687Z,37.77
2019-02-16T12:24:20.732Z,37.61
2019-02-16T12:26:48.029Z,37.68
2019-02-16T12:29:15.425Z,38.13
2019-02-16T12:31:42.589Z,36.98
2019-02-16T12:34:09.550Z,36.95
2019-02-16T12:36:36.886Z,37.16
2019-02-16T12:39:05.029Z,37.29
2019-02-16T12:41:33.699Z,36.48
2019-02-16T12:44:00.589Z,36.45
2019-02-16T12:46:27.532Z,37.01
2019-02-16T12:48:54.403Z,36.75
2019-02-16T12:51:21.658Z,36.67
2019-02-16T12:53:48.606Z,35.98
2019-02-16T12:56:15.600Z,36.01
2019-02-16T12:58:42.570Z,36.35
2019-02-16T13:01:09.803Z,37.03
2019-02-16T13:03:36.967Z,38.29
2019-02-16T13:06:04.059Z,39.91
2019-02-16T13:08:31.219Z,38.42
2019-02-16T13:10:58.189Z,39.00
2019-02-16T13:13:25.567Z,38.37
2019-02-16T13:15:52.926Z,37.78
2019-02-16T13:18:19.805Z,37.53
2019-02-16T13:20:47.071Z,36.57
2019-02-16T13:23:14.002Z,36.38
2019-02-16T13:25:41.930Z,38.35
2019-02-16T13:28:09.361Z,36.47
2019-02-16T13:30:36.537Z,36.03
2019-02-16T13:33:08.562Z,36.55
2019-02-16T13:35:32.505Z,36.57
2019-02-16T13:37:59.472Z,34.76
2019-02-16T13:40:26.699Z,33.82
2019-02-16T13:42:54.029Z,34.18
2019-02-16T13:45:21.401Z,34.50
2019-02-16T13:54:26.254Z,45.78
2019-02-16T13:56:53.524Z,35.61
2019-02-16T13:59:20.498Z,31.41
2019-02-16T14:01:47.956Z,29.75
2019-02-16T14:04:17.200Z,28.77
2019-02-16T14:06:44.184Z,28.58
2019-02-16T14:09:11.157Z,28.32
2019-02-16T14:11:38.098Z,27.94
2019-02-16T14:14:05.433Z,27.78
2019-02-16T14:16:32.392Z,27.44
2019-02-16T14:19:01.365Z,27.32
2019-02-16T14:21:28.593Z,27.36
2019-02-16T14:23:55.574Z,27.42
2019-02-16T14:26:24.622Z,27.62
2019-02-16T14:28:51.952Z,27.71
2019-02-16T14:31:28.049Z,27.52
2019-02-16T14:33:48.074Z,27.25
2019-02-16T14:36:15.050Z,26.88
2019-02-16T14:38:41.968Z,26.82
2019-02-16T14:41:09.043Z,26.67
2019-02-16T14:43:36.361Z,26.67
2019-02-16T14:46:03.344Z,26.53
2019-02-16T14:48:30.270Z,26.34
2019-02-16T14:50:57.337Z,26.31
2019-02-16T14:53:24.529Z,26.29
2019-02-16T14:55:54.231Z,26.22
2019-02-16T14:58:20.275Z,26.08
2019-02-16T15:00:47.260Z,26.03
2019-02-16T15:03:15.582Z,26.05
2019-02-16T15:05:42.825Z,26.16
2019-02-16T15:08:10.322Z,27.12
2019-02-16T15:10:39.936Z,26.97
2019-02-16T15:13:07.018Z,27.03
2019-02-16T15:15:34.307Z,26.93
2019-02-16T15:18:01.310Z,27.23
2019-02-16T15:21:18.627Z,28.36
2019-02-16T15:23:46.996Z,29.43
2019-02-16T15:26:14.329Z,29.25
2019-02-16T15:28:41.847Z,28.86
2019-02-16T15:31:08.909Z,28.47
2019-02-16T15:33:36.388Z,28.39
2019-02-16T15:36:03.338Z,28.72
2019-02-16T15:38:30.228Z,28.42
2019-02-16T15:40:57.548Z,28.05
2019-02-16T15:43:24.512Z,28.13
2019-02-16T15:45:51.392Z,28.14
2019-02-16T15:48:18.620Z,27.99
2019-02-16T15:50:45.935Z,27.92
2019-02-16T15:53:12.918Z,27.85
2019-02-16T15:55:40.436Z,27.71
2019-02-16T15:58:07.414Z,27.57
2019-02-16T16:00:34.387Z,27.49
2019-02-16T16:03:01.416Z,27.47
2019-02-16T16:05:28.754Z,27.48
2019-02-16T16:07:55.995Z,27.50
2019-02-16T16:10:23.013Z,27.50
2019-02-16T16:12:50.549Z,27.51
2019-02-16T16:15:18.506Z,27.47
2019-02-16T16:17:45.821Z,27.47
2019-02-16T16:20:12.739Z,27.48
2019-02-16T16:22:40.122Z,27.57
2019-02-16T16:25:07.070Z,27.67
2019-02-16T16:27:33.946Z,27.63
2019-02-16T16:30:01.164Z,27.70
2019-02-16T16:32:28.505Z,27.79
2019-02-16T16:34:55.504Z,27.82
2019-02-16T16:37:22.547Z,28.00
2019-02-16T16:39:49.430Z,28.10
2019-02-16T16:42:16.372Z,28.21
2019-02-16T16:44:43.345Z,28.34
2019-02-16T16:47:10.326Z,28.45
2019-02-16T16:49:37.926Z,28.52
2019-02-16T16:52:05.367Z,28.60
2019-02-16T16:54:34.653Z,28.84
2019-02-16T16:57:01.471Z,29.02
2019-02-16T16:59:28.422Z,28.96
2019-02-16T17:01:55.969Z,28.86
2019-02-16T17:04:23.320Z,28.87
2019-02-16T17:06:50.493Z,28.86
2019-02-16T17:09:17.704Z,28.83
2019-02-16T17:11:44.981Z,28.90
2019-02-16T17:14:11.946Z,28.87
2019-02-16T17:16:38.988Z,29.00
2019-02-16T17:19:06.242Z,29.10
2019-02-16T17:21:33.280Z,29.21
2019-02-16T17:24:00.951Z,29.39
2019-02-16T17:26:28.039Z,29.31
2019-02-16T17:28:55.420Z,29.38
2019-02-16T17:31:22.575Z,29.42
2019-02-16T17:33:49.840Z,29.45
2019-02-16T17:36:17.097Z,29.46
2019-02-16T17:38:45.021Z,29.41
2019-02-16T17:41:13.292Z,29.43
2019-02-16T17:43:40.236Z,29.51
2019-02-16T17:46:07.420Z,29.50
2019-02-16T17:48:34.302Z,29.54
2019-02-16T17:51:01.346Z,29.62
2019-02-16T17:53:28.413Z,29.67
2019-02-16T17:55:55.646Z,29.78
2019-02-16T17:58:22.616Z,29.88
2019-02-16T18:00:49.820Z,29.92
2019-02-16T18:03:17.182Z,29.91
2019-02-16T18:05:44.155Z,30.01
2019-02-16T18:08:11.391Z,30.08
2019-02-16T18:10:38.618Z,30.13
2019-02-16T18:13:05.516Z,30.18
2019-02-16T18:15:32.784Z,30.26
2019-02-16T18:17:59.879Z,30.39
2019-02-16T18:20:26.821Z,30.50
2019-02-16T18:22:56.224Z,30.60
2019-02-16T18:25:23.184Z,30.66
2019-02-16T18:27:50.414Z,30.60
2019-02-16T18:30:17.680Z,30.47
2019-02-16T18:32:44.688Z,30.50
2019-02-16T18:35:11.670Z,30.45
2019-02-16T18:37:38.764Z,30.52
2019-02-16T18:40:05.860Z,30.48
2019-02-16T18:42:33.552Z,30.44
2019-02-16T18:45:00.557Z,30.57
2019-02-16T18:47:27.582Z,30.73
2019-02-16T18:49:55.167Z,30.87
2019-02-16T18:52:22.422Z,30.99
2019-02-16T18:54:49.740Z,31.01
2019-02-16T18:57:16.820Z,30.93
2019-02-16T18:59:44.090Z,30.92
2019-02-16T19:02:11.241Z,30.96
2019-02-16T19:04:38.514Z,30.92
2019-02-16T19:07:05.739Z,30.86
2019-02-16T19:09:32.709Z,30.77
2019-02-16T19:11:59.700Z,30.64
2019-02-16T19:14:26.727Z,30.56
2019-02-16T19:16:53.958Z,30.51
2019-02-16T19:19:20.955Z,30.54
2019-02-16T19:21:48.354Z,30.52
2019-02-16T19:24:15.347Z,30.55
2019-02-16T19:26:42.580Z,30.58
2019-02-16T19:29:09.625Z,30.64
2019-02-16T19:31:36.970Z,30.66
2019-02-16T19:34:04.211Z,30.71
2019-02-16T19:36:31.554Z,30.72
2019-02-16T19:38:58.806Z,30.78
2019-02-16T19:41:26.319Z,30.75
2019-02-16T19:43:54.443Z,30.61
2019-02-16T19:46:22.476Z,30.55
2019-02-16T19:48:49.379Z,30.69
2019-02-16T19:51:16.360Z,30.79
2019-02-16T19:53:43.659Z,30.93
2019-02-16T19:56:10.950Z,31.09
2019-02-16T19:58:41.316Z,31.20
2019-02-16T20:01:08.366Z,31.22
2019-02-16T20:03:35.428Z,31.36
2019-02-16T20:06:02.412Z,31.47
2019-02-16T20:08:29.338Z,31.44
2019-02-16T20:10:56.736Z,31.43
2019-02-16T20:13:23.666Z,31.45
2019-02-16T20:15:50.883Z,31.50
2019-02-16T20:18:18.129Z,31.53
2019-02-16T20:20:45.395Z,31.58
2019-02-16T20:23:12.845Z,31.58
2019-02-16T20:25:40.199Z,31.66
2019-02-16T20:28:07.136Z,31.72
2019-02-16T20:30:34.121Z,31.83
2019-02-16T20:33:01.053Z,31.91
2019-02-16T20:35:28.054Z,31.98
2019-02-16T20:37:55.063Z,32.02
2019-02-16T20:40:22.009Z,32.14
2019-02-16T20:42:49.033Z,32.25
2019-02-16T20:45:16.262Z,32.33
2019-02-16T20:47:43.584Z,32.31
2019-02-16T20:50:10.805Z,32.31
2019-02-16T20:52:39.258Z,32.42
2019-02-16T20:55:06.531Z,32.54
2019-02-16T20:57:33.496Z,32.67
2019-02-16T21:00:00.603Z,32.80
2019-02-16T21:02:27.873Z,32.88
2019-02-16T21:04:54.875Z,32.97
2019-02-16T21:07:21.849Z,33.07
2019-02-16T21:09:49.005Z,33.11
2019-02-16T21:12:16.409Z,33.16
2019-02-16T21:14:43.577Z,33.25
2019-02-16T21:17:10.565Z,33.35
2019-02-16T21:19:37.823Z,33.42
2019-02-16T21:22:05.166Z,33.59
2019-02-16T21:24:32.530Z,33.84
2019-02-16T21:26:59.895Z,33.93
2019-02-16T21:29:27.250Z,34.03
2019-02-16T21:31:54.223Z,34.16
2019-02-16T21:34:21.191Z,34.19
2019-02-16T21:36:48.489Z,34.14
2019-02-16T21:39:15.847Z,34.19
2019-02-16T21:41:43.106Z,34.22
2019-02-16T21:44:10.463Z,34.24
2019-02-16T21:46:37.699Z,34.51
2019-02-16T21:49:04.679Z,34.41
2019-02-16T21:51:31.663Z,34.56
2019-02-16T21:53:59.099Z,34.55
2019-02-16T21:56:26.194Z,34.58
2019-02-16T21:58:55.628Z,34.59
2019-02-16T22:01:22.725Z,34.64
2019-02-16T22:03:49.678Z,34.76
2019-02-16T22:06:16.597Z,34.95
2019-02-16T22:08:44.005Z,35.02
2019-02-16T22:11:11.345Z,34.95
2019-02-16T22:13:38.702Z,35.04
2019-02-16T22:16:05.597Z,35.21
2019-02-16T22:18:32.528Z,35.35
2019-02-16T22:20:59.533Z,35.25
2019-02-16T22:23:26.802Z,35.26
2019-02-16T22:25:54.084Z,35.21
2019-02-16T22:28:30.527Z,35.21
2019-02-16T22:30:51.195Z,35.07
2019-02-16T22:33:18.103Z,35.22
2019-02-16T22:35:45.285Z,35.30
2019-02-16T22:38:12.584Z,35.58
2019-02-16T22:40:39.614Z,35.58
2019-02-16T22:43:06.486Z,35.58
2019-02-16T22:45:33.743Z,35.61
2019-02-16T22:48:00.721Z,35.84
2019-02-16T22:50:28.161Z,35.94
2019-02-16T22:52:55.201Z,35.89
2019-02-16T22:55:22.530Z,35.93
2019-02-16T22:57:49.783Z,35.98
2019-02-16T23:00:16.796Z,36.16
2019-02-16T23:02:45.362Z,36.34
2019-02-16T23:05:12.729Z,36.49
2019-02-16T23:07:40.025Z,36.49
2019-02-16T23:10:07.285Z,36.36
2019-02-16T23:12:36.045Z,36.25
2019-02-16T23:15:03.078Z,36.40
2019-02-16T23:17:31.586Z,36.57
2019-02-16T23:19:58.838Z,36.58
2019-02-16T23:22:25.986Z,36.70
2019-02-16T23:24:53.453Z,36.69
2019-02-16T23:27:20.725Z,36.67
2019-02-16T23:29:47.858Z,36.69
2019-02-16T23:32:14.737Z,36.61
2019-02-16T23:34:42.046Z,36.72
2019-02-16T23:37:09.012Z,36.64
2019-02-16T23:39:36.253Z,36.66
2019-02-16T23:42:03.497Z,36.67
2019-02-16T23:44:30.375Z,36.66
2019-02-16T23:46:57.691Z,36.70
2019-02-16T23:49:24.879Z,36.72
2019-02-16T23:51:51.854Z,36.73
2019-02-16T23:54:19.150Z,36.67
2019-02-16T23:56:46.077Z,36.55
2019-02-16T23:59:13.342Z,36.56
